Monday, November 20, 2017, 2:39 AM EST
Back to Local

KMHT, Manchester Airport

Location: Manchester, NH, United States Lat: 42.933
Local Time: 2:39 AM EST ( 7:39 GMT) Lon: -71.433
Time Zone: US/Eastern Elev: 232 ft

Show me the last for .
Show Decoded

2017-11-20 01:53 METAR KMHT 200653Z 00000KT 10SM CLR 01/M06 A2966 RMK AO2 SLP060 T00061056 =
2017-11-20 00:53 METAR KMHT 200553Z 28006KT 10SM FEW048 02/M06 A2963 RMK AO2 SLP051 T00171056
                 10039 20017 51015 =
2017-11-19 23:53 METAR KMHT 200453Z 27005KT 10SM FEW046 02/M06 A2962 RMK AO2 SLP047 T00171056
                 401440017 =
2017-11-19 22:53 METAR KMHT 200353Z 26004KT 10SM SCT046 02/M06 A2960 RMK AO2 SLP039 T00221061 =
2017-11-19 21:53 METAR KMHT 200253Z 29005KT 10SM BKN048 02/M06 A2959 RMK AO2 SLP034 T00221056
                 51029 =
2017-11-19 20:53 METAR KMHT 200153Z 30007KT 10SM BKN043 03/M06 A2957 RMK AO2 SLP028 T00281056 =
2017-11-19 19:53 METAR KMHT 200053Z 29011G17KT 10SM BKN043 03/M06 A2954 RMK AO2 SLP018 T00331056
                 =
2017-11-19 18:53 METAR KMHT 192353Z 29009G18KT 10SM BKN043 04/M04 A2950 RMK AO2 SLP005 T00391044
                 10094 20039 51047 =
2017-11-19 17:53 METAR KMHT 192253Z 29011G23KT 10SM BKN040 04/M04 A2945 RMK AO2 PK WND 28029/2243
                 SLP990 T00391044 =
2017-11-19 16:53 METAR KMHT 192153Z 30012G19KT 10SM FEW042 05/M03 A2941 RMK AO2 PK WND 30030/2130
                 SLP975 T00501033 =
2017-11-19 15:53 METAR KMHT 192053Z 29015G26KT 10SM SCT042 06/M03 A2936 RMK AO2 PK WND 29030/2038
                 SLP958 T00611028 53055 =
2017-11-19 14:53 METAR KMHT 191953Z 29013G31KT 10SM BKN040 07/M02 A2929 RMK AO2 PK WND 31034/1855
                 SLP934 T00721017 =
2017-11-19 13:53 METAR KMHT 191853Z 29021G30KT 10SM BKN040 08/M01 A2924 RMK AO2 PK WND 29032/1815
                 SLP915 T00831006 =
2017-11-19 12:53 METAR KMHT 191753Z 27015G25KT 10SM BKN037 09/01 A2920 RMK AO2 PK WND 28028/1737
                 SLP902 60007 T00890011 10144 20050 53039 =
2017-11-19 11:53 METAR KMHT 191653Z 27013G19KT 10SM FEW015 BKN060 08/03 A2916 RMK AO2 PK WND
                 29028/1613 WSHFT 1546 RAE1555 SLP889 P0000 T00830033 =
2017-11-19 11:33 METAR KMHT 191633Z 26014G28KT 10SM SCT015 BKN060 08/04 A2915 RMK AO2 PK WND
                 29028/1613 WSHFT 1546 RAE1555 P0000 T00830039 =
2017-11-19 11:02 METAR KMHT 191602Z 26012G24KT 10SM BKN012 BKN027 BKN055 12/07 A2911 RMK AO2
                 WSHFT 1546 RAE1555 P0000 T01170072 =
2017-11-19 10:53 METAR KMHT 191553Z 27014G30KT 10SM -RA BKN010 BKN080 13/11 A2910 RMK AO2 PK WND
                 24030/1549 PRESRR SLP869 P0004 T01280106 =
2017-11-19 10:15 METAR KMHT 191515Z 19009KT 3SM -RA BR SCT010 BKN036 OVC065 13/13 A2908 RMK AO2
                 TWR VIS 5 P0004 T01330128 =
2017-11-19 09:53 METAR KMHT 191453Z 18010KT 2SM -RA BR FEW010 BKN027 OVC050 13/13 A2908 RMK AO2
                 TWR VIS 5 RAE1359B39 SLP862 P0000 60003 T01330128 56030 =
2017-11-19 08:53 METAR KMHT 191353Z 18009KT 2SM -RA BR BKN027 OVC065 12/11 A2910 RMK AO2 TWR VIS
                 6 SLP869 VIS W-NE 1 P0002 T01170111 =
2017-11-19 08:24 METAR KMHT 191324Z 21004KT 1SM R35/P6000FT -RA BR SCT002 BKN012 OVC027 07/06
                 A2912 RMK AO2 P0001 T00670056 =
2017-11-19 07:53 METAR KMHT 191253Z 21003KT 1/4SM R35/5500VP6000FT -RA FG BKN002 OVC028 06/06
                 A2914 RMK AO2 SLP884 P0001 T00610061 =
2017-11-19 06:53 METAR KMHT 191153Z 22003KT 1/4SM R35/5500VP6000FT -RA FG BKN002 OVC015 05/04
                 A2917 RMK AO2 TWR VIS 3/4 SLP893 P0001 60003 70010 T00500044 10050 20033 56031 =
2017-11-19 05:53 METAR KMHT 191053Z 00000KT 1/2SM R35/4000VP6000FT -RA BR OVC003 04/04 A2917 RMK
                 AO2 SFC VIS 3/4 RAB06 PRESFR SLP893 P0001 T00390039 =
2017-11-19 04:53 METAR KMHT 190953Z 00000KT 1/2SM R35/P6000FT BR OVC003 04/04 A2924 RMK AO2 SFC
                 VIS 2 RAB08E40 SLP916 P0001 T00390039 =
2017-11-19 03:53 METAR KMHT 190853Z 00000KT 1/2SM R35/P6000FT BR OVC003 04/04 A2926 RMK AO2 SFC
                 VIS 1 3/4 RAB29E47 SLP925 P0000 60000 T00390039 58044 =
2017-11-19 02:53 METAR KMHT 190753Z 00000KT 1/2SM R35/P6000FT BR OVC003 04/03 A2931 RMK AO2 SFC
                 VIS 2 RAB0655E28 SLP941 P0000 T00390033 =

Support USWX by starting your Amazon purchase here.